sensor_id;sensor_type;location;lat;lon;timestamp;pressure;altitude;pressure_sealevel;temperature;humidity
11678;BME280;5895;41.950;24.372;2022-12-05T00:00:49;87464.53;;;2.34;100.00
11678;BME280;5895;41.950;24.372;2022-12-05T00:03:16;87471.25;;;2.35;100.00
11678;BME280;5895;41.950;24.372;2022-12-05T00:05:44;87471.25;;;2.35;100.00
11678;BME280;5895;41.950;24.372;2022-12-05T00:08:12;87466.13;;;2.35;100.00
11678;BME280;5895;41.950;24.372;2022-12-05T00:10:39;87466.13;;;2.35;100.00
11678;BME280;5895;41.950;24.372;2022-12-05T00:13:06;87471.88;;;2.37;100.00
11678;BME280;5895;41.950;24.372;2022-12-05T00:15:35;87475.06;;;2.39;100.00
11678;BME280;5895;41.950;24.372;2022-12-05T00:18:03;87473.47;;;2.38;100.00
11678;BME280;5895;41.950;24.372;2022-12-05T00:20:30;87469.94;;;2.39;100.00
11678;BME280;5895;41.950;24.372;2022-12-05T00:22:59;87475.69;;;2.41;100.00
11678;BME280;5895;41.950;24.372;2022-12-05T00:25:26;87476.66;;;2.40;100.00
11678;BME280;5895;41.950;24.372;2022-12-05T00:27:53;87469.31;;;2.37;100.00
11678;BME280;5895;41.950;24.372;2022-12-05T00:30:21;87466.59;;;2.38;100.00
11678;BME280;5895;41.950;24.372;2022-12-05T00:32:48;87477.47;;;2.41;100.00
11678;BME280;5895;41.950;24.372;2022-12-05T00:35:15;87472.50;;;2.39;100.00
11678;BME280;5895;41.950;24.372;2022-12-05T00:37:42;87480.38;;;2.37;100.00
11678;BME280;5895;41.950;24.372;2022-12-05T00:40:11;87487.69;;;2.41;100.00
11678;BME280;5895;41.950;24.372;2022-12-05T00:42:38;87483.56;;;2.39;100.00
11678;BME280;5895;41.950;24.372;2022-12-05T00:45:06;87475.88;;;2.39;100.00
11678;BME280;5895;41.950;24.372;2022-12-05T00:47:34;87483.25;;;2.43;100.00
11678;BME280;5895;41.950;24.372;2022-12-05T00:50:01;87492.69;;;2.42;100.00
11678;BME280;5895;41.950;24.372;2022-12-05T00:52:28;87484.03;;;2.43;100.00
11678;BME280;5895;41.950;24.372;2022-12-05T00:54:55;87485.63;;;2.44;100.00
11678;BME280;5895;41.950;24.372;2022-12-05T00:57:24;87482.09;;;2.45;100.00
11678;BME280;5895;41.950;24.372;2022-12-05T00:59:53;87478.56;;;2.46;100.00
11678;BME280;5895;41.950;24.372;2022-12-05T01:02:20;87472.66;;;2.46;100.00
11678;BME280;5895;41.950;24.372;2022-12-05T01:04:47;87473.31;;;2.48;100.00
11678;BME280;5895;41.950;24.372;2022-12-05T01:07:16;87474.09;;;2.48;100.00
11678;BME280;5895;41.950;24.372;2022-12-05T01:09:43;87477.28;;;2.50;100.00
11678;BME280;5895;41.950;24.372;2022-12-05T01:12:11;87474.72;;;2.50;100.00
11678;BME280;5895;41.950;24.372;2022-12-05T01:14:40;87475.53;;;2.51;100.00
11678;BME280;5895;41.950;24.372;2022-12-05T01:17:07;87471.19;;;2.51;100.00
11678;BME280;5895;41.950;24.372;2022-12-05T01:19:34;87474.72;;;2.50;100.00
11678;BME280;5895;41.950;24.372;2022-12-05T01:22:01;87471.38;;;2.50;100.00
11678;BME280;5895;41.950;24.372;2022-12-05T01:24:29;87459.69;;;2.47;100.00
11678;BME280;5895;41.950;24.372;2022-12-05T01:29:31;87462.25;;;2.47;100.00
11678;BME280;5895;41.950;24.372;2022-12-05T01:32:00;87462.25;;;2.47;100.00
11678;BME280;5895;41.950;24.372;2022-12-05T01:34:28;87452.97;;;2.46;100.00
11678;BME280;5895;41.950;24.372;2022-12-05T01:36:56;87459.69;;;2.47;100.00
11678;BME280;5895;41.950;24.372;2022-12-05T01:39:23;87460.63;;;2.46;100.00
11678;BME280;5895;41.950;24.372;2022-12-05T01:41:51;87460.81;;;2.45;100.00
11678;BME280;5895;41.950;24.372;2022-12-05T01:47:25;87457.63;;;2.43;100.00
11678;BME280;5895;41.950;24.372;2022-12-05T01:49:53;87459.22;;;2.44;100.00
11678;BME280;5895;41.950;24.372;2022-12-05T01:52:22;87455.69;;;2.45;100.00
11678;BME280;5895;41.950;24.372;2022-12-05T01:54:57;87452.97;;;2.46;100.00
11678;BME280;5895;41.950;24.372;2022-12-05T01:57:26;87449.78;;;2.44;100.00
11678;BME280;5895;41.950;24.372;2022-12-05T01:59:56;87442.88;;;2.45;100.00
11678;BME280;5895;41.950;24.372;2022-12-05T02:02:26;87443.84;;;2.44;100.00
11678;BME280;5895;41.950;24.372;2022-12-05T02:05:00;87438.56;;;2.45;100.00
11678;BME280;5895;41.950;24.372;2022-12-05T02:07:28;87445.28;;;2.46;100.00
11678;BME280;5895;41.950;24.372;2022-12-05T02:09:56;87440.94;;;2.47;100.00
11678;BME280;5895;41.950;24.372;2022-12-05T02:12:24;87438.56;;;2.45;100.00
11678;BME280;5895;41.950;24.372;2022-12-05T02:15:02;87432.81;;;2.43;100.00
11678;BME280;5895;41.950;24.372;2022-12-05T02:17:40;87431.22;;;2.42;100.00
11678;BME280;5895;41.950;24.372;2022-12-05T02:20:24;87430.44;;;2.42;100.00
11678;BME280;5895;41.950;24.372;2022-12-05T02:23:22;87429.59;;;2.41;100.00
11678;BME280;5895;41.950;24.372;2022-12-05T02:26:17;87427.22;;;2.39;100.00
11678;BME280;5895;41.950;24.372;2022-12-05T02:31:51;87436.66;;;2.39;100.00
11678;BME280;5895;41.950;24.372;2022-12-05T02:34:26;87432.34;;;2.39;100.00
11678;BME280;5895;41.950;24.372;2022-12-05T02:37:02;87418.41;;;2.42;100.00
11678;BME280;5895;41.950;24.372;2022-12-05T02:39:38;87436.34;;;2.42;100.00
11678;BME280;5895;41.950;24.372;2022-12-05T02:42:11;87433.63;;;2.44;100.00
11678;BME280;5895;41.950;24.372;2022-12-05T02:44:43;87428.31;;;2.45;100.00
11678;BME280;5895;41.950;24.372;2022-12-05T02:47:15;87422.22;;;2.46;100.00
11678;BME280;5895;41.950;24.372;2022-12-05T02:49:44;87429.13;;;2.46;100.00
11678;BME280;5895;41.950;24.372;2022-12-05T02:52:14;87424.47;;;2.49;100.00
11678;BME280;5895;41.950;24.372;2022-12-05T02:54:45;87435.34;;;2.51;100.00
11678;BME280;5895;41.950;24.372;2022-12-05T02:57:14;87428.31;;;2.53;100.00
11678;BME280;5895;41.950;24.372;2022-12-05T02:59:43;87437.91;;;2.51;100.00
11678;BME280;5895;41.950;24.372;2022-12-05T03:02:23;87442.41;;;2.49;100.00
11678;BME280;5895;41.950;24.372;2022-12-05T03:04:51;87439.22;;;2.47;100.00
11678;BME280;5895;41.950;24.372;2022-12-05T03:07:20;87437.59;;;2.46;100.00
11678;BME280;5895;41.950;24.372;2022-12-05T03:09:53;87441.13;;;2.45;100.00
11678;BME280;5895;41.950;24.372;2022-12-05T03:12:23;87433.78;;;2.42;100.00
11678;BME280;5895;41.950;24.372;2022-12-05T03:15:03;87438.91;;;2.42;100.00
11678;BME280;5895;41.950;24.372;2022-12-05T03:17:36;87439.84;;;2.41;100.00
11678;BME280;5895;41.950;24.372;2022-12-05T03:20:10;87441.28;;;2.44;100.00
11678;BME280;5895;41.950;24.372;2022-12-05T03:22:44;87441.28;;;2.44;100.00
11678;BME280;5895;41.950;24.372;2022-12-05T03:25:13;87446.59;;;2.42;100.00
11678;BME280;5895;41.950;24.372;2022-12-05T03:27:45;87445.63;;;2.43;100.00
11678;BME280;5895;41.950;24.372;2022-12-05T03:30:17;87448.00;;;2.45;100.00
11678;BME280;5895;41.950;24.372;2022-12-05T03:32:51;87451.38;;;2.45;100.00
11678;BME280;5895;41.950;24.372;2022-12-05T03:35:25;87451.38;;;2.45;100.00
11678;BME280;5895;41.950;24.372;2022-12-05T03:37:55;87449.59;;;2.46;100.00
11678;BME280;5895;41.950;24.372;2022-12-05T03:40:31;87444.34;;;2.47;100.00
11678;BME280;5895;41.950;24.372;2022-12-05T03:43:05;87449.47;;;2.47;100.00
11678;BME280;5895;41.950;24.372;2022-12-05T03:45:38;87442.41;;;2.49;100.00
11678;BME280;5895;41.950;24.372;2022-12-05T03:48:14;87442.41;;;2.49;100.00
11678;BME280;5895;41.950;24.372;2022-12-05T03:50:43;87449.47;;;2.47;100.00
11678;BME280;5895;41.950;24.372;2022-12-05T03:53:16;87446.72;;;2.49;100.00
11678;BME280;5895;41.950;24.372;2022-12-05T03:55:48;87449.47;;;2.47;100.00
11678;BME280;5895;41.950;24.372;2022-12-05T03:58:23;87440.16;;;2.46;100.00
11678;BME280;5895;41.950;24.372;2022-12-05T04:00:53;87444.34;;;2.47;100.00
11678;BME280;5895;41.950;24.372;2022-12-05T04:03:29;87437.59;;;2.46;100.00
11678;BME280;5895;41.950;24.372;2022-12-05T04:06:08;87443.19;;;2.50;100.00
11678;BME280;5895;41.950;24.372;2022-12-05T04:08:42;87440.47;;;2.51;100.00
11678;BME280;5895;41.950;24.372;2022-12-05T04:11:14;87442.06;;;2.52;100.00
11678;BME280;5895;41.950;24.372;2022-12-05T04:13:45;87438.88;;;2.50;100.00
11678;BME280;5895;41.950;24.372;2022-12-05T04:16:16;87441.59;;;2.49;100.00
11678;BME280;5895;41.950;24.372;2022-12-05T04:19:05;87437.28;;;2.49;100.00
11678;BME280;5895;41.950;24.372;2022-12-05T04:21:38;87437.28;;;2.49;100.00
11678;BME280;5895;41.950;24.372;2022-12-05T04:24:09;87433.75;;;2.50;100.00
11678;BME280;5895;41.950;24.372;2022-12-05T04:27:02;87439.50;;;2.52;100.00
11678;BME280;5895;41.950;24.372;2022-12-05T04:29:34;87424.13;;;2.52;100.00
11678;BME280;5895;41.950;24.372;2022-12-05T04:32:07;87427.50;;;2.53;100.00
11678;BME280;5895;41.950;24.372;2022-12-05T04:34:41;87428.31;;;2.53;100.00
11678;BME280;5895;41.950;24.372;2022-12-05T04:37:14;87428.31;;;2.53;100.00
11678;BME280;5895;41.950;24.372;2022-12-05T04:39:47;87425.75;;;2.53;100.00
11678;BME280;5895;41.950;24.372;2022-12-05T04:42:19;87425.88;;;2.52;100.00
11678;BME280;5895;41.950;24.372;2022-12-05T04:44:50;87414.53;;;2.54;100.00
11678;BME280;5895;41.950;24.372;2022-12-05T04:47:26;87422.22;;;2.54;100.00
11678;BME280;5895;41.950;24.372;2022-12-05T04:49:56;87420.75;;;2.52;100.00
11678;BME280;5895;41.950;24.372;2022-12-05T04:52:26;87421.91;;;2.49;100.00
11678;BME280;5895;41.950;24.372;2022-12-05T04:55:00;87427.03;;;2.49;100.00
11678;BME280;5895;41.950;24.372;2022-12-05T04:57:32;87422.88;;;2.48;100.00
11678;BME280;5895;41.950;24.372;2022-12-05T05:00:02;87420.31;;;2.48;100.00
11678;BME280;5895;41.950;24.372;2022-12-05T05:02:32;87416.78;;;2.49;100.00
11678;BME280;5895;41.950;24.372;2022-12-05T05:05:07;87427.81;;;2.50;100.00
11678;BME280;5895;41.950;24.372;2022-12-05T05:07:42;87425.09;;;2.51;100.00
11678;BME280;5895;41.950;24.372;2022-12-05T05:10:12;87431.00;;;2.52;100.00
11678;BME280;5895;41.950;24.372;2022-12-05T05:12:41;87430.22;;;2.51;100.00
11678;BME280;5895;41.950;24.372;2022-12-05T05:15:09;87435.34;;;2.51;100.00
11678;BME280;5895;41.950;24.372;2022-12-05T05:17:36;87435.34;;;2.51;100.00
11678;BME280;5895;41.950;24.372;2022-12-05T05:20:07;87445.59;;;2.51;100.00
11678;BME280;5895;41.950;24.372;2022-12-05T05:22:50;87444.00;;;2.50;100.00
11678;BME280;5895;41.950;24.372;2022-12-05T05:25:19;87442.06;;;2.52;100.00
11678;BME280;5895;41.950;24.372;2022-12-05T05:27:50;87446.22;;;2.53;100.00
11678;BME280;5895;41.950;24.372;2022-12-05T05:30:18;87444.47;;;2.54;100.00
11678;BME280;5895;41.950;24.372;2022-12-05T05:32:46;87450.38;;;2.54;100.00
11678;BME280;5895;41.950;24.372;2022-12-05T05:35:15;87455.34;;;2.56;100.00
11678;BME280;5895;41.950;24.372;2022-12-05T05:37:43;87453.56;;;2.56;100.00
11678;BME280;5895;41.950;24.372;2022-12-05T05:40:12;87458.69;;;2.56;100.00
11678;BME280;5895;41.950;24.372;2022-12-05T05:42:42;87453.56;;;2.56;100.00
11678;BME280;5895;41.950;24.372;2022-12-05T05:45:10;87445.88;;;2.56;100.00
11678;BME280;5895;41.950;24.372;2022-12-05T05:47:38;87453.41;;;2.58;100.00
11678;BME280;5895;41.950;24.372;2022-12-05T05:50:07;87455.16;;;2.57;100.00
11678;BME280;5895;41.950;24.372;2022-12-05T05:52:36;87460.94;;;2.59;100.00
11678;BME280;5895;41.950;24.372;2022-12-05T05:55:05;87459.16;;;2.60;100.00
11678;BME280;5895;41.950;24.372;2022-12-05T05:57:33;87463.50;;;2.59;100.00
11678;BME280;5895;41.950;24.372;2022-12-05T06:00:02;87460.94;;;2.59;100.00
11678;BME280;5895;41.950;24.372;2022-12-05T06:02:31;87463.31;;;2.61;100.00
11678;BME280;5895;41.950;24.372;2022-12-05T06:04:59;87466.69;;;2.61;100.00
11678;BME280;5895;41.950;24.372;2022-12-05T06:07:27;87466.69;;;2.61;100.00
11678;BME280;5895;41.950;24.372;2022-12-05T06:09:56;87468.94;;;2.64;100.00
11678;BME280;5895;41.950;24.372;2022-12-05T06:12:23;87472.09;;;2.67;100.00
11678;BME280;5895;41.950;24.372;2022-12-05T06:14:51;87467.59;;;2.69;100.00
11678;BME280;5895;41.950;24.372;2022-12-05T06:17:19;87470.03;;;2.70;100.00
11678;BME280;5895;41.950;24.372;2022-12-05T06:19:46;87478.50;;;2.71;100.00
11678;BME280;5895;41.950;24.372;2022-12-05T06:22:13;87474.00;;;2.73;100.00
11678;BME280;5895;41.950;24.372;2022-12-05T06:24:41;87482.31;;;2.75;100.00
11678;BME280;5895;41.950;24.372;2022-12-05T06:27:10;87480.41;;;2.77;100.00
11678;BME280;5895;41.950;24.372;2022-12-05T06:29:37;87480.84;;;2.80;100.00
11678;BME280;5895;41.950;24.372;2022-12-05T06:32:05;87480.53;;;2.83;100.00
11678;BME280;5895;41.950;24.372;2022-12-05T06:34:32;87479.38;;;2.86;100.00
11678;BME280;5895;41.950;24.372;2022-12-05T06:37:00;87478.75;;;2.92;100.00
11678;BME280;5895;41.950;24.372;2022-12-05T06:39:28;87485.13;;;2.96;100.00
11678;BME280;5895;41.950;24.372;2022-12-05T06:41:56;87490.53;;;3.01;100.00
11678;BME280;5895;41.950;24.372;2022-12-05T06:44:25;87491.19;;;3.03;100.00
11678;BME280;5895;41.950;24.372;2022-12-05T06:46:54;87492.78;;;3.04;100.00
11678;BME280;5895;41.950;24.372;2022-12-05T06:49:22;87492.00;;;3.04;100.00
11678;BME280;5895;41.950;24.372;2022-12-05T06:51:51;87496.31;;;3.03;100.00
11678;BME280;5895;41.950;24.372;2022-12-05T06:54:19;87493.09;;;3.01;100.00
11678;BME280;5895;41.950;24.372;2022-12-05T06:56:47;87488.31;;;2.98;100.00
11678;BME280;5895;41.950;24.372;2022-12-05T06:59:14;87488.31;;;2.98;100.00
11678;BME280;5895;41.950;24.372;2022-12-05T07:01:43;87487.19;;;3.01;100.00
11678;BME280;5895;41.950;24.372;2022-12-05T07:04:13;87498.41;;;3.00;100.00
11678;BME280;5895;41.950;24.372;2022-12-05T07:06:42;87503.53;;;3.00;100.00
11678;BME280;5895;41.950;24.372;2022-12-05T07:09:10;87499.81;;;3.02;100.00
11678;BME280;5895;41.950;24.372;2022-12-05T07:11:37;87489.88;;;3.07;100.00
11678;BME280;5895;41.950;24.372;2022-12-05T07:14:05;87497.84;;;3.12;100.00
11678;BME280;5895;41.950;24.372;2022-12-05T07:16:34;87499.31;;;3.15;100.00
11678;BME280;5895;41.950;24.372;2022-12-05T07:19:03;87507.78;;;3.15;100.00
11678;BME280;5895;41.950;24.372;2022-12-05T07:21:30;87504.25;;;3.16;100.00
11678;BME280;5895;41.950;24.372;2022-12-05T07:23:58;87494.31;;;3.22;100.00
11678;BME280;5895;41.950;24.372;2022-12-05T07:26:25;87495.84;;;3.31;100.00
11678;BME280;5895;41.950;24.372;2022-12-05T07:28:55;87502.88;;;3.37;100.00
11678;BME280;5895;41.950;24.372;2022-12-05T07:31:23;87510.56;;;3.37;100.00
11678;BME280;5895;41.950;24.372;2022-12-05T07:33:51;87512.16;;;3.38;100.00
11678;BME280;5895;41.950;24.372;2022-12-05T07:36:20;87519.19;;;3.44;100.00
11678;BME280;5895;41.950;24.372;2022-12-05T07:38:54;87522.03;;;3.49;100.00
11678;BME280;5895;41.950;24.372;2022-12-05T07:41:24;87521.00;;;3.58;100.00
11678;BME280;5895;41.950;24.372;2022-12-05T07:43:52;87524.22;;;3.60;100.00
11678;BME280;5895;41.950;24.372;2022-12-05T07:46:21;87523.53;;;3.66;100.00
11678;BME280;5895;41.950;24.372;2022-12-05T07:48:49;87519.28;;;3.82;100.00
11678;BME280;5895;41.950;24.372;2022-12-05T07:51:17;87511.50;;;3.90;100.00
11678;BME280;5895;41.950;24.372;2022-12-05T07:53:47;87510.19;;;3.94;100.00
11678;BME280;5895;41.950;24.372;2022-12-05T07:56:16;87513.38;;;3.96;100.00
11678;BME280;5895;41.950;24.372;2022-12-05T07:58:44;87514.97;;;3.97;100.00
11678;BME280;5895;41.950;24.372;2022-12-05T08:01:14;87509.22;;;3.95;100.00
11678;BME280;5895;41.950;24.372;2022-12-05T08:03:42;87509.84;;;3.97;100.00
11678;BME280;5895;41.950;24.372;2022-12-05T08:06:12;87512.69;;;4.02;100.00
11678;BME280;5895;41.950;24.372;2022-12-05T08:08:40;87503.88;;;4.05;100.00
11678;BME280;5895;41.950;24.372;2022-12-05T08:11:11;87515.91;;;4.04;100.00
11678;BME280;5895;41.950;24.372;2022-12-05T08:13:39;87512.69;;;4.02;100.00
11678;BME280;5895;41.950;24.372;2022-12-05T08:16:09;87516.56;;;3.98;100.00
11678;BME280;5895;41.950;24.372;2022-12-05T08:18:37;87511.78;;;3.95;100.00
11678;BME280;5895;41.950;24.372;2022-12-05T08:21:06;87517.91;;;3.94;100.00
11678;BME280;5895;41.950;24.372;2022-12-05T08:23:34;87518.41;;;3.89;100.00
11678;BME280;5895;41.950;24.372;2022-12-05T08:26:02;87522.78;;;3.81;100.00
11678;BME280;5895;41.950;24.372;2022-12-05T08:28:32;87518.84;;;3.70;100.00
11678;BME280;5895;41.950;24.372;2022-12-05T08:31:04;87513.97;;;3.60;100.00
11678;BME280;5895;41.950;24.372;2022-12-05T08:33:32;87511.72;;;3.57;100.00
11678;BME280;5895;41.950;24.372;2022-12-05T08:36:00;87511.44;;;3.52;100.00
11678;BME280;5895;41.950;24.372;2022-12-05T08:38:28;87506.97;;;3.46;100.00
11678;BME280;5895;41.950;24.372;2022-12-05T08:40:57;87512.78;;;3.40;100.00
11678;BME280;5895;41.950;24.372;2022-12-05T08:43:27;87509.91;;;3.43;100.00
11678;BME280;5895;41.950;24.372;2022-12-05T08:45:56;87510.50;;;3.45;100.00
11678;BME280;5895;41.950;24.372;2022-12-05T08:48:24;87508.56;;;3.47;100.00
11678;BME280;5895;41.950;24.372;2022-12-05T08:50:52;87512.56;;;3.50;100.00
11678;BME280;5895;41.950;24.372;2022-12-05T08:53:20;87502.75;;;3.53;100.00
11678;BME280;5895;41.950;24.372;2022-12-05T08:55:48;87505.28;;;3.61;100.00
11678;BME280;5895;41.950;24.372;2022-12-05T08:58:15;87501.94;;;3.84;100.00
11678;BME280;5895;41.950;24.372;2022-12-05T09:00:43;87496.38;;;3.95;100.00
11678;BME280;5895;41.950;24.372;2022-12-05T09:03:11;87492.16;;;4.02;100.00
11678;BME280;5895;41.950;24.372;2022-12-05T09:05:39;87491.47;;;4.08;100.00
11678;BME280;5895;41.950;24.372;2022-12-05T09:08:06;87494.59;;;4.18;100.00
11678;BME280;5895;41.950;24.372;2022-12-05T09:10:34;87495.94;;;4.29;100.00
11678;BME280;5895;41.950;24.372;2022-12-05T09:13:03;87488.00;;;4.39;99.85
11678;BME280;5895;41.950;24.372;2022-12-05T09:15:30;87493.94;;;4.39;99.28
11678;BME280;5895;41.950;24.372;2022-12-05T09:17:58;87484.44;;;4.40;99.51
11678;BME280;5895;41.950;24.372;2022-12-05T09:20:27;87467.59;;;4.37;99.35
11678;BME280;5895;41.950;24.372;2022-12-05T09:22:54;87473.56;;;4.38;99.52
11678;BME280;5895;41.950;24.372;2022-12-05T09:25:22;87471.16;;;4.36;99.47
11678;BME280;5895;41.950;24.372;2022-12-05T09:27:49;87483.56;;;4.33;100.00
11678;BME280;5895;41.950;24.372;2022-12-05T09:30:19;87484.69;;;4.30;100.00
11678;BME280;5895;41.950;24.372;2022-12-05T09:32:47;87479.81;;;4.35;100.00
11678;BME280;5895;41.950;24.372;2022-12-05T09:35:14;87479.41;;;4.46;100.00
11678;BME280;5895;41.950;24.372;2022-12-05T09:37:43;87478.19;;;4.57;99.69
11678;BME280;5895;41.950;24.372;2022-12-05T09:40:15;87484.47;;;4.69;98.83
11678;BME280;5895;41.950;24.372;2022-12-05T09:42:57;87472.75;;;4.82;98.58
11678;BME280;5895;41.950;24.372;2022-12-05T09:45:34;87473.22;;;4.85;98.10
11678;BME280;5895;41.950;24.372;2022-12-05T09:48:06;87470.13;;;4.90;97.27
11678;BME280;5895;41.950;24.372;2022-12-05T09:50:43;87468.16;;;4.92;97.59
11678;BME280;5895;41.950;24.372;2022-12-05T09:53:21;87468.06;;;5.00;97.22
11678;BME280;5895;41.950;24.372;2022-12-05T09:55:52;87467.97;;;5.08;96.70
11678;BME280;5895;41.950;24.372;2022-12-05T09:58:27;87466.00;;;5.10;97.06
11678;BME280;5895;41.950;24.372;2022-12-05T10:01:02;87464.06;;;5.12;96.96
11678;BME280;5895;41.950;24.372;2022-12-05T10:03:37;87456.59;;;5.17;97.12
11678;BME280;5895;41.950;24.372;2022-12-05T10:06:12;87461.63;;;5.25;97.51
11678;BME280;5895;41.950;24.372;2022-12-05T10:08:57;87452.84;;;5.35;97.53
11678;BME280;5895;41.950;24.372;2022-12-05T10:11:34;87457.06;;;5.42;97.20
11678;BME280;5895;41.950;24.372;2022-12-05T10:14:08;87454.56;;;5.49;96.63
11678;BME280;5895;41.950;24.372;2022-12-05T10:16:41;87447.09;;;5.54;96.26
11678;BME280;5895;41.950;24.372;2022-12-05T10:19:17;87452.50;;;5.59;96.76
11678;BME280;5895;41.950;24.372;2022-12-05T10:21:50;87452.50;;;5.59;97.02
11678;BME280;5895;41.950;24.372;2022-12-05T10:24:27;87451.72;;;5.58;97.35
11678;BME280;5895;41.950;24.372;2022-12-05T10:26:58;87447.16;;;5.61;96.19
11678;BME280;5895;41.950;24.372;2022-12-05T10:29:29;87443.78;;;5.60;96.94
11678;BME280;5895;41.950;24.372;2022-12-05T10:32:04;87453.09;;;5.61;96.95
11678;BME280;5895;41.950;24.372;2022-12-05T10:34:37;87446.81;;;5.64;97.81
11678;BME280;5895;41.950;24.372;2022-12-05T10:37:09;87440.88;;;5.63;96.96
11678;BME280;5895;41.950;24.372;2022-12-05T10:39:40;87437.50;;;5.63;97.89
11678;BME280;5895;41.950;24.372;2022-12-05T10:42:12;87437.25;;;5.57;97.89
11678;BME280;5895;41.950;24.372;2022-12-05T10:44:41;87432.66;;;5.53;98.27
11678;BME280;5895;41.950;24.372;2022-12-05T10:47:09;87422.28;;;5.46;98.98
11678;BME280;5895;41.950;24.372;2022-12-05T10:49:37;87427.25;;;5.48;98.78
11678;BME280;5895;41.950;24.372;2022-12-05T10:52:05;87435.34;;;5.45;99.13
11678;BME280;5895;41.950;24.372;2022-12-05T10:54:42;87440.78;;;5.35;99.60
11678;BME280;5895;41.950;24.372;2022-12-05T10:57:21;87435.38;;;5.30;99.64
11678;BME280;5895;41.950;24.372;2022-12-05T10:59:49;87425.88;;;5.30;99.28
11678;BME280;5895;41.950;24.372;2022-12-05T11:02:22;87426.94;;;5.21;100.00
11678;BME280;5895;41.950;24.372;2022-12-05T11:04:50;87428.31;;;5.17;100.00
11678;BME280;5895;41.950;24.372;2022-12-05T11:07:25;87422.66;;;5.07;99.29
11678;BME280;5895;41.950;24.372;2022-12-05T11:09:55;87420.44;;;5.04;99.58
11678;BME280;5895;41.950;24.372;2022-12-05T11:12:23;87425.22;;;5.07;99.64
11678;BME280;5895;41.950;24.372;2022-12-05T11:14:58;87420.63;;;5.02;98.69
11678;BME280;5895;41.950;24.372;2022-12-05T11:17:30;87419.22;;;5.00;98.78
11678;BME280;5895;41.950;24.372;2022-12-05T11:19:58;87411.66;;;4.98;98.82
11678;BME280;5895;41.950;24.372;2022-12-05T11:22:33;87408.94;;;5.00;99.80
11678;BME280;5895;41.950;24.372;2022-12-05T11:25:23;87414.16;;;5.07;99.71
11678;BME280;5895;41.950;24.372;2022-12-05T11:27:51;87410.16;;;5.04;99.06
11678;BME280;5895;41.950;24.372;2022-12-05T11:30:20;87420.16;;;4.99;98.22
11678;BME280;5895;41.950;24.372;2022-12-05T11:32:47;87406.81;;;4.89;98.88
